Time;durP1;ratioP1;P1;durP2;ratioP2;P2;SDS_P1;SDS_P2;PMS_P1;PMS_P2;Temp;Humidity;BMP_temperature;BMP_pressure;BME280_temperature;BME280_humidity;BME280_pressure;Samples;Min_cycle;Max_cycle;Signal;HPM_P1;HPM_P2
2022/03/07 00:00:06;;;;;;;12.95;6.45;;;0.40;99.90;;;;;;5018735;28;20053;-88
2022/03/07 00:02:38;;;;;;;13.40;7.05;;;0.20;99.90;;;;;;5001890;28;20041;-89
2022/03/07 00:05:16;;;;;;;15.27;7.00;;;0.30;99.90;;;;;;5003820;28;20049;-88
2022/03/07 00:07:52;;;;;;;15.18;7.40;;;1.60;99.90;;;;;;5018141;28;20132;-88
2022/03/07 00:10:18;;;;;;;12.73;7.15;;;1.30;99.90;;;;;;5002461;28;20049;-88
2022/03/07 00:12:43;;;;;;;19.13;7.57;;;1.00;99.90;;;;;;5017960;28;20049;-88
2022/03/07 00:15:09;;;;;;;14.85;7.22;;;1.40;99.90;;;;;;5018886;28;20046;-88
2022/03/07 00:17:35;;;;;;;12.63;6.70;;;0.60;99.90;;;;;;5021827;28;20140;-91
2022/03/07 00:20:03;;;;;;;17.17;8.30;;;0.50;99.90;;;;;;5021898;28;20132;-88
2022/03/07 00:22:32;;;;;;;14.77;7.05;;;0.10;99.90;;;;;;5037745;28;20049;-88
2022/03/07 00:24:58;;;;;;;13.52;7.18;;;;;;;;;;5038059;28;20402;-88
2022/03/07 00:27:27;;;;;;;14.10;6.95;;;0.00;99.90;;;;;;5021650;28;20045;-88
2022/03/07 00:29:52;;;;;;;14.35;6.95;;;1.50;99.90;;;;;;5037945;28;20080;-88
2022/03/07 00:32:18;;;;;;;16.92;7.85;;;1.60;99.90;;;;;;5021887;28;20088;-88
2022/03/07 00:34:49;;;;;;;15.05;7.55;;;1.70;99.90;;;;;;5004409;28;20535;-88
2022/03/07 00:37:15;;;;;;;17.08;7.32;;;0.30;99.90;;;;;;4986218;28;20053;-89
2022/03/07 00:39:40;;;;;;;15.20;8.05;;;-0.20;99.90;;;;;;5037933;28;20132;-88
2022/03/07 00:42:09;;;;;;;13.88;7.82;;;0.00;99.90;;;;;;5021413;28;20470;-89
2022/03/07 00:44:39;;;;;;;20.52;8.65;;;-0.20;99.90;;;;;;5021907;28;20073;-88
2022/03/07 00:47:05;;;;;;;18.58;9.25;;;0.00;99.90;;;;;;5019739;28;20049;-89
2022/03/07 00:49:31;;;;;;;13.15;7.40;;;0.80;99.90;;;;;;5018865;28;20394;-88
2022/03/07 00:52:00;;;;;;;14.32;7.38;;;-0.30;99.90;;;;;;5017552;28;20049;-90
2022/03/07 00:54:34;;;;;;;18.88;7.80;;;1.20;99.90;;;;;;5018194;28;20144;-88
2022/03/07 00:57:02;;;;;;;17.17;7.95;;;;;;;;;;5034635;28;20069;-89
2022/03/07 00:59:31;;;;;;;15.63;7.45;;;-0.50;99.90;;;;;;5018140;28;20398;-89
2022/03/07 01:02:02;;;;;;;16.92;8.30;;;0.10;99.90;;;;;;5018500;28;20116;-89
2022/03/07 01:04:28;;;;;;;20.83;9.40;;;-0.60;99.90;;;;;;5001815;28;20513;-89
2022/03/07 01:06:59;;;;;;;18.50;8.70;;;-1.40;99.90;;;;;;5017865;28;20053;-88
2022/03/07 01:09:35;;;;;;;16.00;8.23;;;0.20;99.90;;;;;;5018391;28;20176;-89
2022/03/07 01:12:01;;;;;;;16.88;8.77;;;0.80;99.90;;;;;;5017826;28;20049;-89
2022/03/07 01:14:27;;;;;;;14.13;7.65;;;;;;;;;;5018291;28;20140;-88
2022/03/07 01:16:55;;;;;;;17.75;9.07;;;-0.70;99.90;;;;;;5034462;28;20049;-89
2022/03/07 01:19:23;;;;;;;16.20;8.40;;;-1.50;99.90;;;;;;5034745;28;20049;-88
2022/03/07 01:21:52;;;;;;;17.05;8.90;;;0.10;99.90;;;;;;5033941;28;20053;-89
2022/03/07 01:24:18;;;;;;;17.80;8.82;;;0.60;99.90;;;;;;5018001;28;20562;-89
2022/03/07 01:26:45;;;;;;;19.27;9.07;;;-1.90;99.90;;;;;;5017768;28;20087;-88
2022/03/07 01:29:14;;;;;;;18.25;8.57;;;0.20;99.90;;;;;;5017870;28;20059;-88
2022/03/07 01:31:40;;;;;;;18.83;9.20;;;-0.50;99.90;;;;;;5009566;28;20050;-90
2022/03/07 01:34:15;;;;;;;18.40;9.38;;;-0.80;99.90;;;;;;4998414;28;20049;-88
2022/03/07 01:36:46;;;;;;;18.45;9.15;;;-0.50;99.90;;;;;;4998431;28;20133;-89
2022/03/07 01:39:14;;;;;;;21.15;9.52;;;-0.10;99.90;;;;;;5014646;28;20107;-89
2022/03/07 01:41:45;;;;;;;15.65;8.70;;;-1.50;99.90;;;;;;5013986;28;20045;-91
2022/03/07 01:44:19;;;;;;;18.67;9.10;;;-0.70;99.90;;;;;;5014627;28;20050;-89
2022/03/07 01:46:55;;;;;;;21.73;8.82;;;0.10;99.90;;;;;;4997835;28;20050;-89
2022/03/07 01:49:32;;;;;;;;;;;;;;;;;;;;;
2022/03/07 01:52:01;;;;;;;19.88;8.68;;;0.40;99.90;;;;;;5020742;28;20052;-90
2022/03/07 01:54:30;;;;;;;16.25;9.13;;;-1.40;99.90;;;;;;5012916;28;20046;-89
2022/03/07 01:56:59;;;;;;;17.98;8.55;;;-2.00;99.90;;;;;;5013914;28;20097;-89
2022/03/07 01:59:37;;;;;;;;;;;;;;;;;;;;;
2022/03/07 02:02:06;;;;;;;19.13;8.38;;;-0.60;99.90;;;;;;5013768;28;20061;-89
2022/03/07 02:04:32;;;;;;;20.65;9.13;;;-1.10;99.90;;;;;;4997624;28;20042;-89
2022/03/07 02:07:03;;;;;;;16.60;8.82;;;0.50;99.90;;;;;;5013478;28;20054;-89
2022/03/07 02:09:39;;;;;;;15.20;9.00;;;-0.70;99.90;;;;;;5013193;28;20889;-89
2022/03/07 02:12:26;;;;;;;19.38;8.65;;;0.10;99.90;;;;;;5006307;28;20103;-89
2022/03/07 02:15:01;;;;;;;;;;;;;;;;;;;;;
2022/03/07 02:17:27;;;;;;;17.83;9.05;;;-0.10;99.90;;;;;;5033470;28;20053;-89
2022/03/07 02:20:00;;;;;;;15.70;8.65;;;-0.70;99.90;;;;;;5016943;28;20049;-89
2022/03/07 02:22:26;;;;;;;17.08;8.60;;;-0.30;99.90;;;;;;5033044;28;20046;-89
2022/03/07 02:24:57;;;;;;;18.55;8.77;;;0.40;99.90;;;;;;5016716;28;20056;-88
2022/03/07 02:27:30;;;;;;;18.45;9.00;;;-1.00;99.90;;;;;;5000562;28;20104;-89
2022/03/07 02:29:58;;;;;;;16.67;9.38;;;-0.10;99.90;;;;;;5017938;28;20053;-90
2022/03/07 02:32:24;;;;;;;17.50;8.70;;;;;;;;;;5016666;28;20103;-88
2022/03/07 02:34:52;;;;;;;;;;;-1.40;99.90;;;;;;5033558;28;20053;-89
2022/03/07 02:37:26;;;;;;;19.02;8.60;;;-0.50;99.90;;;;;;5015822;28;19921;-88
2022/03/07 02:40:02;;;;;;;;;;;;;;;;;;;;;
2022/03/07 02:42:35;;;;;;;20.15;9.30;;;-0.30;99.90;;;;;;5032895;28;20471;-89
2022/03/07 02:45:01;;;;;;;19.08;9.40;;;0.10;99.90;;;;;;5032839;28;20483;-89
2022/03/07 02:47:30;;;;;;;18.55;9.15;;;0.00;99.90;;;;;;5033266;28;20045;-89
2022/03/07 02:49:56;;;;;;;20.00;9.82;;;-0.30;99.90;;;;;;5016415;28;20053;-89
2022/03/07 02:52:28;;;;;;;23.38;10.15;;;-0.10;99.90;;;;;;5016439;28;20115;-89
2022/03/07 02:54:57;;;;;;;21.30;10.88;;;-2.70;99.90;;;;;;5032713;28;20052;-90
2022/03/07 02:57:28;;;;;;;23.88;11.00;;;0.00;99.90;;;;;;5031763;28;20050;-89
2022/03/07 02:59:58;;;;;;;23.15;10.13;;;0.40;99.90;;;;;;5014421;28;20497;-90
2022/03/07 03:02:44;;;;;;;19.63;10.00;;;0.40;99.90;;;;;;4998826;28;20056;-89
2022/03/07 03:05:12;;;;;;;22.73;10.73;;;-0.10;99.90;;;;;;5000653;28;20045;-91
2022/03/07 03:07:39;;;;;;;22.80;9.98;;;;;;;;;;5014453;28;20122;-89
2022/03/07 03:10:05;;;;;;;17.85;9.27;;;-1.70;99.90;;;;;;5014023;28;20049;-89
2022/03/07 03:12:39;;;;;;;25.20;10.02;;;-1.50;99.90;;;;;;5010548;28;20571;-90
2022/03/07 03:15:08;;;;;;;18.50;9.98;;;-0.10;99.90;;;;;;4994317;28;20050;-90
2022/03/07 03:17:34;;;;;;;18.83;9.20;;;-1.60;99.90;;;;;;4994738;28;20048;-89
2022/03/07 03:20:10;;;;;;;18.98;9.55;;;-1.50;99.90;;;;;;5011092;28;20046;-89
2022/03/07 03:22:52;;;;;;;18.48;8.85;;;-1.30;99.90;;;;;;4994488;28;20052;-89
2022/03/07 03:25:23;;;;;;;21.60;8.70;;;-0.90;99.90;;;;;;5040542;28;20041;-88
2022/03/07 03:27:49;;;;;;;21.95;10.00;;;-0.10;99.90;;;;;;5013768;28;20179;-91
2022/03/07 03:30:20;;;;;;;24.00;9.65;;;-1.20;99.90;;;;;;5014637;28;20124;-89
2022/03/07 03:32:55;;;;;;;20.38;8.88;;;-1.90;99.90;;;;;;5015476;28;20049;-89
2022/03/07 03:35:43;;;;;;;20.10;10.07;;;-1.70;99.90;;;;;;5015648;28;20045;-88
2022/03/07 03:38:21;;;;;;;21.33;10.70;;;-0.20;99.90;;;;;;5030720;28;20049;-89
2022/03/07 03:40:47;;;;;;;22.75;10.73;;;;;;;;;;5015665;28;20052;-90
2022/03/07 03:43:23;;;;;;;;;;;-1.60;99.90;;;;;;5014373;28;20046;-90
2022/03/07 03:45:57;;;;;;;20.05;9.25;;;-0.70;99.90;;;;;;5032111;28;20023;-89
2022/03/07 03:48:31;;;;;;;18.33;9.20;;;-0.80;99.90;;;;;;5032183;28;20128;-88
2022/03/07 03:51:06;;;;;;;23.58;10.15;;;-1.20;99.90;;;;;;5015357;28;20049;-89
2022/03/07 03:53:44;;;;;;;18.83;9.98;;;-1.20;99.90;;;;;;5015135;28;20100;-89
2022/03/07 03:56:25;;;;;;;18.50;8.52;;;0.00;99.90;;;;;;5000119;28;20053;-90
2022/03/07 03:58:51;;;;;;;19.38;9.38;;;0.30;99.90;;;;;;4980884;28;20049;-91
2022/03/07 04:01:29;;;;;;;18.80;10.30;;;-1.00;99.90;;;;;;4979560;28;20049;-89
2022/03/07 04:03:55;;;;;;;19.45;9.45;;;0.20;99.90;;;;;;4980891;28;20133;-90
2022/03/07 04:06:23;;;;;;;23.48;10.27;;;-0.40;99.90;;;;;;4995718;28;20157;-90
2022/03/07 04:08:55;;;;;;;19.58;9.57;;;0.00;99.90;;;;;;5011478;28;20136;-89
2022/03/07 04:11:21;;;;;;;19.60;10.18;;;-1.00;99.90;;;;;;5013233;28;20042;-89
2022/03/07 04:13:46;;;;;;;;;;;0.10;99.90;;;;;;5015476;28;20049;-89
2022/03/07 04:16:15;;;;;;;22.73;9.57;;;-0.20;99.90;;;;;;5015005;28;20008;-88
2022/03/07 04:18:41;;;;;;;19.38;9.68;;;-0.80;99.90;;;;;;5032073;28;20095;-89
2022/03/07 04:21:10;;;;;;;18.02;9.05;;;0.40;99.90;;;;;;5031873;28;20041;-89
2022/03/07 04:23:38;;;;;;;24.23;9.25;;;0.70;99.90;;;;;;5017955;28;20399;-90
2022/03/07 04:26:16;;;;;;;18.92;9.00;;;-1.90;99.90;;;;;;5018955;28;20053;-89
2022/03/07 04:28:47;;;;;;;18.05;9.00;;;0.30;99.90;;;;;;5035269;28;20037;-89
2022/03/07 04:31:17;;;;;;;17.60;8.52;;;-0.70;99.90;;;;;;5002547;28;20158;-89
2022/03/07 04:33:58;;;;;;;;;;;;;;;;;;;;;
2022/03/07 04:36:32;;;;;;;24.85;9.75;;;-0.50;99.90;;;;;;5015897;28;20153;-89
2022/03/07 04:38:57;;;;;;;18.38;9.05;;;-2.30;99.90;;;;;;4998592;28;20476;-90
2022/03/07 04:41:34;;;;;;;21.65;9.98;;;0.10;99.90;;;;;;4999780;28;20084;-89
2022/03/07 04:44:04;;;;;;;18.70;9.57;;;0.10;99.90;;;;;;4998691;28;20038;-90
2022/03/07 04:46:42;;;;;;;17.02;9.10;;;-1.20;99.90;;;;;;4999164;28;20056;-89
2022/03/07 04:49:11;;;;;;;16.23;8.90;;;0.30;99.90;;;;;;4998993;28;20042;-89
2022/03/07 04:51:45;;;;;;;15.20;9.00;;;0.00;99.90;;;;;;4984868;28;20523;-90
2022/03/07 04:54:26;;;;;;;;;;;;;;;;;;;;;
2022/03/07 04:57:02;;;;;;;18.08;8.20;;;-0.60;99.90;;;;;;5038388;28;20045;-89
2022/03/07 04:59:30;;;;;;;20.20;8.88;;;-1.10;99.90;;;;;;5021646;28;20045;-90
2022/03/07 05:02:09;;;;;;;21.67;10.60;;;-0.40;99.90;;;;;;5021743;28;20084;-90
2022/03/07 05:04:35;;;;;;;20.77;10.25;;;-0.10;99.90;;;;;;5038019;28;20490;-91
2022/03/07 05:07:06;;;;;;;21.67;11.23;;;0.50;99.90;;;;;;5021169;28;20055;-89
2022/03/07 05:09:35;;;;;;;22.25;10.10;;;-1.30;99.90;;;;;;5021939;28;20045;-90
2022/03/07 05:12:01;;;;;;;19.77;10.55;;;-0.40;99.90;;;;;;5021056;28;20083;-90
2022/03/07 05:14:30;;;;;;;19.67;9.43;;;-1.30;99.90;;;;;;5021333;28;20072;-90
2022/03/07 05:16:59;;;;;;;20.67;9.88;;;-0.80;99.90;;;;;;5004943;28;20600;-90
2022/03/07 05:19:30;;;;;;;21.63;9.23;;;-1.20;99.90;;;;;;5021804;28;20059;-90
2022/03/07 05:22:09;;;;;;;;;;;;;;;;;;;;;
2022/03/07 05:24:38;;;;;;;19.05;10.32;;;0.10;99.90;;;;;;5038094;28;20047;-90
2022/03/07 05:27:09;;;;;;;22.67;10.18;;;-0.20;99.90;;;;;;5020893;28;20128;-89
2022/03/07 05:29:42;;;;;;;20.42;9.45;;;-0.50;99.90;;;;;;5021732;28;20053;-89
2022/03/07 05:32:10;;;;;;;18.38;9.40;;;-0.30;99.90;;;;;;5037443;28;20099;-90
2022/03/07 05:34:38;;;;;;;20.35;9.55;;;0.50;99.90;;;;;;5021069;28;20552;-93
2022/03/07 05:37:08;;;;;;;21.45;9.52;;;-1.20;99.90;;;;;;5019616;28;20141;-88
2022/03/07 05:39:49;;;;;;;19.77;9.73;;;-1.10;99.90;;;;;;5037782;28;20116;-89
2022/03/07 05:42:24;;;;;;;22.88;10.20;;;-1.30;99.90;;;;;;5020070;28;20045;-89
2022/03/07 05:44:52;;;;;;;22.23;9.73;;;-1.20;99.90;;;;;;5020163;28;20045;-91
2022/03/07 05:47:18;;;;;;;22.38;10.95;;;;;;;;;;5037281;28;20049;-89
2022/03/07 05:49:47;;;;;;;23.67;9.82;;;-1.50;99.90;;;;;;5020811;28;20482;-89
2022/03/07 05:52:15;;;;;;;20.60;10.02;;;-1.30;99.90;;;;;;5016400;28;20061;-89
2022/03/07 05:54:46;;;;;;;21.23;10.68;;;0.10;99.90;;;;;;5016901;28;20052;-90
2022/03/07 05:57:14;;;;;;;23.92;10.18;;;-0.40;99.90;;;;;;5017226;28;20145;-90
2022/03/07 05:59:43;;;;;;;19.88;10.85;;;0.20;99.90;;;;;;5017535;28;20042;-89
2022/03/07 06:02:14;;;;;;;19.55;10.13;;;0.00;99.90;;;;;;5032967;28;20411;-90
2022/03/07 06:04:41;;;;;;;22.58;10.40;;;0.00;99.90;;;;;;5014049;28;20045;-89
2022/03/07 06:07:22;;;;;;;20.63;9.98;;;0.00;99.90;;;;;;4995512;28;20172;-89
2022/03/07 06:10:01;;;;;;;;;;;;;;;;;;;;;
2022/03/07 06:12:27;;;;;;;22.60;10.50;;;0.00;99.90;;;;;;5033433;28;20054;-90
2022/03/07 06:15:03;;;;;;;;;;;;;;;;;;;;;
2022/03/07 06:17:35;;;;;;;;;;;-0.30;99.90;;;;;;5029586;28;20040;-91
2022/03/07 06:20:11;;;;;;;18.40;9.27;;;0.00;99.90;;;;;;5014157;28;19921;-90
2022/03/07 06:22:50;;;;;;;21.50;10.35;;;-0.90;99.90;;;;;;5002740;28;20556;-89
2022/03/07 06:25:17;;;;;;;21.77;10.57;;;;;;;;;;5017050;28;20091;-90
2022/03/07 06:27:50;;;;;;;21.80;10.93;;;-1.10;99.90;;;;;;5005869;28;20475;-90
2022/03/07 06:30:23;;;;;;;22.63;11.13;;;-0.90;99.90;;;;;;5029204;28;20479;-90
2022/03/07 06:32:51;;;;;;;25.05;11.20;;;0.30;99.90;;;;;;4994418;28;20129;-93
2022/03/07 06:35:20;;;;;;;24.10;11.32;;;0.20;99.90;;;;;;5016896;28;20045;-95
2022/03/07 06:37:53;;;;;;;23.52;10.73;;;-0.70;99.90;;;;;;5016749;28;20057;-93
2022/03/07 06:40:27;;;;;;;23.73;11.45;;;-1.30;99.90;;;;;;5033428;28;20203;-95
2022/03/07 06:42:55;;;;;;;22.17;11.40;;;-0.70;99.90;;;;;;5016406;28;20041;-93
2022/03/07 06:45:24;;;;;;;22.42;11.32;;;-2.40;99.90;;;;;;5014240;28;20077;-93
2022/03/07 06:47:51;;;;;;;23.58;11.25;;;;;;;;;;5016455;28;20403;-95
2022/03/07 06:50:28;;;;;;;;;;;-1.10;99.90;;;;;;4997000;28;20054;-88
2022/03/07 06:53:00;;;;;;;26.38;10.35;;;-0.50;99.90;;;;;;5012272;28;19921;-86
2022/03/07 06:55:33;;;;;;;22.95;11.00;;;0.60;99.90;;;;;;4995944;28;20058;-90
2022/03/07 06:58:09;;;;;;;25.63;11.65;;;-0.30;99.90;;;;;;4997310;28;20085;-90
2022/03/07 07:00:38;;;;;;;23.33;11.38;;;-0.10;99.90;;;;;;5013033;28;20049;-90
2022/03/07 07:03:07;;;;;;;21.63;11.43;;;0.70;99.90;;;;;;4996136;28;20046;-90
2022/03/07 07:05:33;;;;;;;24.88;11.57;;;-0.10;99.90;;;;;;4995733;28;20136;-90
2022/03/07 07:07:59;;;;;;;25.33;12.25;;;-0.70;99.90;;;;;;5026359;28;20124;-89
2022/03/07 07:10:27;;;;;;;25.70;11.73;;;-0.80;99.90;;;;;;5031554;28;20157;-90
2022/03/07 07:12:55;;;;;;;25.23;11.93;;;0.30;99.90;;;;;;4995024;28;20136;-89
2022/03/07 07:15:23;;;;;;;21.90;11.52;;;0.10;99.90;;;;;;4979321;28;20144;-88
2022/03/07 07:17:52;;;;;;;20.90;10.40;;;0.30;99.90;;;;;;4996229;28;20061;-89
2022/03/07 07:20:18;;;;;;;21.88;10.45;;;0.70;99.90;;;;;;4996038;28;20053;-88
2022/03/07 07:22:44;;;;;;;19.38;10.82;;;0.00;99.90;;;;;;4995598;28;20042;-90
2022/03/07 07:25:10;;;;;;;20.83;11.05;;;-0.60;99.90;;;;;;4996365;28;20506;-90
2022/03/07 07:27:37;;;;;;;22.75;10.68;;;-0.40;99.90;;;;;;5012297;28;20053;-90
2022/03/07 07:30:08;;;;;;;23.45;10.52;;;0.80;99.90;;;;;;5008423;28;20052;-88
2022/03/07 07:32:35;;;;;;;26.92;10.77;;;-0.70;99.90;;;;;;5011205;28;20521;-90
2022/03/07 07:35:01;;;;;;;25.02;10.68;;;0.60;99.90;;;;;;5031502;28;20120;-87
2022/03/07 07:37:27;;;;;;;25.13;11.02;;;-0.70;99.90;;;;;;5011730;28;20204;-90
2022/03/07 07:39:53;;;;;;;21.10;10.07;;;0.20;99.90;;;;;;5006671;28;20061;-90
2022/03/07 07:42:18;;;;;;;24.65;10.30;;;0.10;99.90;;;;;;5028721;28;20068;-90
2022/03/07 07:44:44;;;;;;;23.17;11.00;;;0.40;99.90;;;;;;4996620;28;20045;-89
2022/03/07 07:47:10;;;;;;;24.63;12.43;;;-0.60;99.90;;;;;;5015540;28;20048;-90
2022/03/07 07:49:37;;;;;;;27.38;13.40;;;0.70;99.90;;;;;;5015298;28;20045;-90
2022/03/07 07:52:03;;;;;;;26.85;12.40;;;0.20;99.90;;;;;;5031241;28;20056;-89
2022/03/07 07:54:30;;;;;;;26.45;13.48;;;-0.40;99.90;;;;;;5010963;28;20494;-90
2022/03/07 07:56:56;;;;;;;24.52;13.82;;;0.60;99.90;;;;;;4997529;28;20054;-89
2022/03/07 07:59:22;;;;;;;27.00;12.30;;;-0.50;99.90;;;;;;4998638;28;20507;-88
2022/03/07 08:01:48;;;;;;;23.38;12.20;;;;;;;;;;5018460;28;20045;-88
2022/03/07 08:04:13;;;;;;;;;;;-0.20;99.90;;;;;;5035394;28;20041;-89
2022/03/07 08:06:40;;;;;;;25.80;12.50;;;1.40;99.90;;;;;;5034332;28;19936;-88
2022/03/07 08:09:06;;;;;;;28.23;12.75;;;0.50;99.90;;;;;;5023509;28;20069;-87
2022/03/07 08:11:32;;;;;;;25.63;12.02;;;1.30;99.90;;;;;;4997930;28;20139;-87
2022/03/07 08:14:01;;;;;;;22.90;10.45;;;0.70;99.90;;;;;;5014201;28;20038;-90
2022/03/07 08:16:26;;;;;;;21.73;10.98;;;1.40;99.90;;;;;;5009417;28;20050;-88
2022/03/07 08:18:54;;;;;;;24.92;10.50;;;0.20;99.90;;;;;;5001869;28;20059;-87
2022/03/07 08:21:25;;;;;;;21.33;10.85;;;0.40;99.90;;;;;;5018248;28;20049;-87
2022/03/07 08:23:54;;;;;;;21.15;9.95;;;0.50;99.90;;;;;;5000424;28;20399;-87
2022/03/07 08:26:22;;;;;;;22.55;9.90;;;0.60;99.90;;;;;;5010914;28;20145;-88
2022/03/07 08:28:47;;;;;;;20.63;10.13;;;1.70;99.90;;;;;;5023995;28;20099;-88
2022/03/07 08:31:13;;;;;;;21.23;9.50;;;1.50;99.90;;;;;;5000363;28;20376;-88
2022/03/07 08:33:39;;;;;;;17.83;8.88;;;1.50;99.90;;;;;;5032800;28;20053;-88
2022/03/07 08:36:04;;;;;;;19.42;10.68;;;1.40;99.90;;;;;;4997763;28;20041;-87
2022/03/07 08:38:31;;;;;;;22.52;10.45;;;1.10;99.90;;;;;;5032404;28;20075;-89
2022/03/07 08:40:57;;;;;;;20.92;9.98;;;1.90;99.90;;;;;;5030510;28;20041;-87
2022/03/07 08:43:23;;;;;;;21.60;10.32;;;1.50;99.90;;;;;;5012498;28;20052;-89
2022/03/07 08:45:49;;;;;;;18.17;9.73;;;1.30;99.90;;;;;;5014449;28;20054;-92
2022/03/07 08:48:15;;;;;;;;;;;2.20;99.90;;;;;;4985627;28;20045;-88
2022/03/07 08:50:41;;;;;;;22.92;10.82;;;1.30;99.90;;;;;;5032979;28;20248;-87
2022/03/07 08:53:06;;;;;;;21.10;10.52;;;1.50;99.90;;;;;;5015522;28;20484;-91
2022/03/07 08:55:32;;;;;;;27.20;10.70;;;1.90;99.90;;;;;;5031989;28;20045;-87
2022/03/07 08:57:58;;;;;;;29.33;12.07;;;2.80;99.90;;;;;;4999090;28;20049;-86
2022/03/07 09:00:24;;;;;;;23.67;11.52;;;2.50;99.90;;;;;;4989784;28;20042;-92
2022/03/07 09:02:49;;;;;;;27.85;12.48;;;1.80;99.90;;;;;;5014657;28;20044;-87
2022/03/07 09:05:15;;;;;;;23.70;10.25;;;2.80;99.90;;;;;;5028710;28;20475;-90
2022/03/07 09:07:41;;;;;;;21.38;9.85;;;3.40;99.90;;;;;;5030022;28;20635;-89
2022/03/07 09:10:07;;;;;;;19.17;9.27;;;2.00;99.90;;;;;;5016629;28;20049;-91
2022/03/07 09:12:33;;;;;;;18.10;8.63;;;2.10;99.90;;;;;;5031162;28;20089;-89
2022/03/07 09:15:01;;;;;;;17.83;8.95;;;3.00;99.90;;;;;;5015495;28;20057;-90
2022/03/07 09:17:27;;;;;;;19.33;9.20;;;2.20;99.90;;;;;;5015645;28;20049;-89
2022/03/07 09:19:53;;;;;;;;;;;2.30;99.90;;;;;;5033037;28;20399;-89
2022/03/07 09:22:18;;;;;;;13.05;6.28;;;2.60;99.90;;;;;;5031214;28;19925;-89
2022/03/07 09:24:45;;;;;;;15.82;7.90;;;2.50;99.90;;;;;;4984825;28;20049;-88
2022/03/07 09:27:11;;;;;;;21.58;8.35;;;2.50;99.90;;;;;;5012856;28;20042;-86
2022/03/07 09:29:37;;;;;;;17.90;7.82;;;2.60;99.90;;;;;;5014975;28;20053;-86
2022/03/07 09:32:05;;;;;;;17.38;8.05;;;2.60;99.90;;;;;;5018761;28;20050;-88
2022/03/07 09:34:32;;;;;;;19.27;8.13;;;2.70;99.90;;;;;;5001022;28;20045;-82
2022/03/07 09:36:57;;;;;;;15.95;7.40;;;3.50;99.90;;;;;;5017885;28;20038;-82
2022/03/07 09:39:23;;;;;;;20.40;9.27;;;2.80;99.90;;;;;;4991491;28;20542;-80
2022/03/07 09:41:49;;;;;;;18.90;8.02;;;3.40;99.90;;;;;;5011790;28;20057;-82
2022/03/07 09:44:14;;;;;;;16.23;6.97;;;3.10;99.90;;;;;;4998180;28;20097;-83
2022/03/07 09:46:40;;;;;;;15.65;7.18;;;3.30;99.90;;;;;;5014438;28;20500;-81
2022/03/07 09:49:06;;;;;;;13.50;6.68;;;3.30;99.90;;;;;;5015071;28;20053;-83
2022/03/07 09:51:32;;;;;;;16.15;7.10;;;3.70;99.90;;;;;;5013926;28;20132;-82
2022/03/07 09:53:57;;;;;;;17.00;7.07;;;3.60;99.90;;;;;;5030187;28;20447;-82
2022/03/07 09:56:25;;;;;;;17.35;7.10;;;3.80;99.90;;;;;;5030833;28;20115;-82
2022/03/07 09:58:51;;;;;;;13.60;5.57;;;3.90;99.90;;;;;;5025419;28;20080;-82
2022/03/07 10:01:20;;;;;;;10.73;5.70;;;4.00;99.90;;;;;;5005615;28;20073;-83
2022/03/07 10:03:47;;;;;;;15.27;5.53;;;3.80;99.90;;;;;;5018930;28;20501;-82
2022/03/07 10:06:17;;;;;;;12.25;5.18;;;3.80;99.90;;;;;;5019359;28;20053;-83
2022/03/07 10:08:58;;;;;;;15.40;5.15;;;3.80;99.90;;;;;;5018032;28;20045;-83
2022/03/07 10:11:25;;;;;;;8.88;4.43;;;3.80;99.90;;;;;;5008329;28;20068;-81
2022/03/07 10:13:59;;;;;;;12.40;4.60;;;3.80;99.90;;;;;;5021069;28;20077;-82
2022/03/07 10:16:43;;;;;;;11.40;4.32;;;4.10;99.90;;;;;;5022261;28;20049;-82
2022/03/07 10:19:14;;;;;;;11.50;4.53;;;3.90;99.90;;;;;;5018721;28;20089;-82
2022/03/07 10:21:49;;;;;;;8.18;4.20;;;4.10;99.90;;;;;;5015754;28;20080;-81
2022/03/07 10:24:16;;;;;;;11.10;3.80;;;4.50;99.90;;;;;;5012102;28;20046;-82
2022/03/07 10:26:41;;;;;;;10.98;4.25;;;4.50;99.90;;;;;;5008771;28;20049;-82
2022/03/07 10:29:07;;;;;;;8.30;4.10;;;4.70;99.90;;;;;;5005334;28;20060;-80
2022/03/07 10:31:33;;;;;;;9.52;4.28;;;4.70;99.90;;;;;;5021904;28;20488;-82
2022/03/07 10:34:08;;;;;;;13.00;4.47;;;5.20;99.90;;;;;;5004852;28;20053;-82
2022/03/07 10:36:39;;;;;;;8.00;4.10;;;5.20;99.90;;;;;;5003718;28;20049;-82
2022/03/07 10:39:09;;;;;;;14.57;4.75;;;5.40;99.90;;;;;;5022919;28;20060;-82
2022/03/07 10:41:46;;;;;;;10.13;4.25;;;6.40;99.90;;;;;;5008425;28;20438;-82
2022/03/07 10:44:28;;;;;;;7.95;3.78;;;5.60;99.90;;;;;;5020313;28;20542;-82
2022/03/07 10:47:08;;;;;;;10.88;4.05;;;5.80;99.90;;;;;;5016490;28;20049;-82
2022/03/07 10:49:34;;;;;;;8.70;4.28;;;6.00;99.90;;;;;;5008840;28;20693;-82
2022/03/07 10:52:04;;;;;;;9.43;4.60;;;6.30;99.90;;;;;;5017128;28;20057;-81
2022/03/07 10:54:35;;;;;;;10.48;4.57;;;6.10;99.90;;;;;;5012874;28;20062;-81
2022/03/07 10:57:02;;;;;;;13.80;5.03;;;6.20;99.90;;;;;;5012327;28;20052;-82
2022/03/07 10:59:33;;;;;;;9.63;4.22;;;6.30;99.90;;;;;;5024180;28;20417;-82
2022/03/07 11:02:10;;;;;;;10.07;4.30;;;6.50;99.90;;;;;;5012296;28;20072;-82
2022/03/07 11:04:40;;;;;;;9.90;4.63;;;6.70;99.90;;;;;;5021543;28;20119;-82
2022/03/07 11:07:08;;;;;;;8.13;4.57;;;6.70;99.90;;;;;;5024039;28;20137;-83
2022/03/07 11:09:35;;;;;;;9.60;4.45;;;6.80;99.90;;;;;;5020395;28;20045;-82
2022/03/07 11:12:03;;;;;;;9.10;4.80;;;6.80;99.90;;;;;;5020283;28;20049;-82
2022/03/07 11:14:29;;;;;;;7.97;3.90;;;6.90;99.90;;;;;;5017447;28;20071;-82
2022/03/07 11:16:56;;;;;;;7.05;3.67;;;7.00;99.90;;;;;;5023264;28;20044;-83
2022/03/07 11:19:27;;;;;;;7.22;3.50;;;7.10;99.90;;;;;;5026239;28;20055;-82
2022/03/07 11:21:55;;;;;;;8.52;4.20;;;7.20;99.90;;;;;;5010368;28;20084;-82
2022/03/07 11:24:25;;;;;;;7.57;4.22;;;7.30;99.90;;;;;;5022925;28;20049;-82
2022/03/07 11:26:53;;;;;;;8.07;3.75;;;7.30;99.90;;;;;;5020347;28;20067;-82
2022/03/07 11:29:19;;;;;;;8.93;4.80;;;7.40;99.90;;;;;;5025874;28;20052;-79
2022/03/07 11:31:46;;;;;;;11.10;4.82;;;7.40;99.90;;;;;;5022291;28;20041;-83
2022/03/07 11:34:12;;;;;;;7.35;3.72;;;7.50;99.90;;;;;;5040424;28;20076;-88
2022/03/07 11:36:44;;;;;;;5.47;2.75;;;7.60;99.90;;;;;;5006127;28;20092;-82
2022/03/07 11:39:12;;;;;;;8.48;3.58;;;7.70;99.90;;;;;;5017007;28;20045;-83
2022/03/07 11:41:39;;;;;;;6.72;3.13;;;7.90;99.90;;;;;;5006966;28;20478;-82
2022/03/07 11:44:11;;;;;;;6.25;3.38;;;8.10;99.90;;;;;;5002534;28;20060;-84
2022/03/07 11:46:39;;;;;;;8.38;3.78;;;8.10;99.90;;;;;;5014864;28;20052;-84
2022/03/07 11:49:08;;;;;;;10.55;4.28;;;8.20;99.90;;;;;;5022496;28;20415;-84
2022/03/07 11:51:36;;;;;;;13.35;5.00;;;8.10;99.90;;;;;;5028317;28;20566;-82
2022/03/07 11:54:03;;;;;;;10.60;4.45;;;8.00;99.90;;;;;;5012742;28;20065;-84
2022/03/07 11:56:35;;;;;;;9.23;4.63;;;8.00;99.90;;;;;;5011896;28;20153;-83
2022/03/07 11:59:03;;;;;;;4.85;2.67;;;8.20;99.90;;;;;;5029612;28;20524;-82
2022/03/07 12:01:31;;;;;;;3.92;2.55;;;8.50;99.90;;;;;;5035533;28;20053;-84
2022/03/07 12:04:14;;;;;;;5.90;3.30;;;9.00;99.90;;;;;;5019731;28;20054;-84
2022/03/07 12:07:00;;;;;;;6.40;3.60;;;9.30;99.90;;;;;;5020514;28;20136;-83
2022/03/07 12:09:34;;;;;;;5.88;3.33;;;9.60;99.90;;;;;;5021880;28;20063;-83
2022/03/07 12:12:09;;;;;;;7.53;3.80;;;9.90;99.90;;;;;;5020667;28;20045;-83
2022/03/07 12:14:40;;;;;;;7.97;4.15;;;10.10;99.90;;;;;;5020506;28;20057;-83
2022/03/07 12:17:13;;;;;;;7.25;3.67;;;10.30;99.90;;;;;;5032026;28;20049;-84
2022/03/07 12:19:40;;;;;;;6.85;3.30;;;10.50;99.90;;;;;;5031904;28;20059;-84
2022/03/07 12:22:10;;;;;;;;;;;10.60;99.90;;;;;;5001921;28;20071;-83
2022/03/07 12:24:37;;;;;;;6.63;3.10;;;10.80;99.90;;;;;;5012330;28;19967;-82
2022/03/07 12:27:03;;;;;;;6.70;2.90;;;11.00;99.90;;;;;;4980006;28;20077;-84
2022/03/07 12:29:29;;;;;;;6.43;3.00;;;11.30;99.90;;;;;;5012341;28;20046;-83
2022/03/07 12:32:04;;;;;;;8.00;3.28;;;11.50;99.90;;;;;;4995403;28;20061;-83
2022/03/07 12:34:35;;;;;;;10.43;3.40;;;11.70;99.90;;;;;;5015056;28;20071;-83
2022/03/07 12:37:17;;;;;;;7.85;3.10;;;11.80;99.90;;;;;;5014449;28;20048;-84
2022/03/07 12:39:47;;;;;;;6.28;3.10;;;11.90;99.70;;;;;;5031916;28;20456;-84
2022/03/07 12:42:15;;;;;;;6.45;3.05;;;12.10;98.40;;;;;;5016707;28;20394;-85
2022/03/07 12:44:41;;;;;;;6.43;2.80;;;12.20;93.00;;;;;;5030831;28;20053;-82
2022/03/07 12:47:08;;;;;;;7.38;3.40;;;12.30;92.10;;;;;;5015978;28;20565;-83
2022/03/07 12:49:33;;;;;;;6.15;2.85;;;12.50;90.30;;;;;;5016088;28;20053;-84
2022/03/07 12:52:05;;;;;;;5.30;2.88;;;12.60;84.00;;;;;;5048173;28;20065;-84
2022/03/07 12:54:36;;;;;;;6.55;3.20;;;12.60;80.20;;;;;;5035718;28;20081;-84
2022/03/07 12:57:03;;;;;;;8.02;3.30;;;12.70;78.50;;;;;;5017977;28;20061;-84
2022/03/07 12:59:31;;;;;;;5.32;3.30;;;12.80;80.50;;;;;;5035215;28;20061;-84
2022/03/07 13:01:57;;;;;;;7.50;3.22;;;13.10;81.40;;;;;;5034048;28;20052;-82
2022/03/07 13:04:27;;;;;;;6.22;3.05;;;13.40;80.60;;;;;;5015833;28;20453;-82
2022/03/07 13:06:55;;;;;;;6.65;3.30;;;13.60;77.40;;;;;;5029809;28;20064;-81
2022/03/07 13:09:32;;;;;;;5.28;2.95;;;13.80;76.50;;;;;;5053020;28;20049;-83